Morrisville, Virginia
Current Conditions -  °F | °C
As of 2:35 PM on Thursday 30 Oct 2014 (Local Time) from KCJR Reporting Station
Scattered Clouds Scattered Clouds  
Wind Chill: 61°   Ceiling: Unl
Heat Index: 61°   Visibility: 10mi
Dew Point: 36°   Wind: 6mph
Humidity: 39%   Direction: 280°W
Pressure: 30.04"   Gusts: NA
Location:  38.5752°N, 77.8213°W
Report Text: KCJR 301835Z AUTO 28005KT 10SM SCT050 16/02 A3004 RMK AO2
Loading
Personal Weather Stations






























Interactive Weather Map
Tropical Storm Tracking
New forecast layout! Learn more

10-Day Weather Forecast

Advertisements
Track Severe Weather on mobile